createdAt,value
2022-10-13T00:01:09.237Z,86.25
2022-10-13T00:03:37.020Z,86.59
2022-10-13T00:06:10.100Z,88.43
2022-10-13T00:08:37.244Z,88.31
2022-10-13T00:11:14.020Z,88.39
2022-10-13T00:13:41.013Z,90.00
2022-10-13T00:16:08.068Z,92.16
2022-10-13T00:18:34.543Z,90.65
2022-10-13T00:21:01.263Z,89.86
2022-10-13T00:23:27.614Z,89.90
2022-10-13T00:25:54.007Z,90.52
2022-10-13T00:28:20.618Z,91.37
2022-10-13T00:30:47.373Z,90.27
2022-10-13T00:33:14.458Z,90.00
2022-10-13T00:35:47.991Z,90.21
2022-10-13T00:38:15.899Z,91.91
2022-10-13T00:40:46.582Z,91.61
2022-10-13T00:43:24.635Z,91.53
2022-10-13T00:45:51.877Z,91.19
2022-10-13T00:48:23.865Z,92.35
2022-10-13T00:50:51.423Z,90.62
2022-10-13T00:53:21.649Z,91.47
2022-10-13T00:55:49.687Z,91.54
2022-10-13T00:58:19.539Z,90.69
2022-10-13T01:00:49.104Z,90.61
2022-10-13T01:03:15.910Z,90.21
2022-10-13T01:05:42.919Z,90.53
2022-10-13T01:08:10.979Z,91.12
2022-10-13T01:10:55.313Z,93.48
2022-10-13T01:13:38.946Z,91.20
2022-10-13T01:16:24.210Z,92.63
2022-10-13T01:19:27.421Z,90.76
2022-10-13T01:22:31.509Z,92.35
2022-10-13T01:25:06.951Z,90.81
2022-10-13T01:27:57.745Z,92.32
2022-10-13T01:30:24.189Z,93.78
2022-10-13T01:33:18.076Z,92.75
2022-10-13T01:35:56.887Z,94.89
2022-10-13T01:38:42.415Z,92.51
2022-10-13T01:41:19.399Z,91.97
2022-10-13T01:43:55.827Z,91.33
2022-10-13T01:46:26.726Z,93.24
2022-10-13T01:48:56.473Z,91.35
2022-10-13T01:51:25.485Z,91.06
2022-10-13T01:53:52.108Z,90.23
2022-10-13T01:56:18.651Z,91.73
2022-10-13T01:58:46.728Z,91.94
2022-10-13T02:01:36.804Z,90.40
2022-10-13T02:04:17.934Z,89.99
2022-10-13T02:07:06.453Z,89.28
2022-10-13T02:09:48.529Z,92.75
2022-10-13T02:12:30.240Z,92.39
2022-10-13T02:14:58.817Z,92.71
2022-10-13T02:17:27.323Z,93.77
2022-10-13T02:19:55.203Z,91.26
2022-10-13T02:22:26.335Z,91.69
2022-10-13T02:24:53.210Z,90.91
2022-10-13T02:27:20.010Z,90.96
2022-10-13T02:29:55.321Z,89.65
2022-10-13T02:32:22.898Z,92.42
2022-10-13T02:34:49.842Z,92.58
2022-10-13T02:37:16.552Z,92.61
2022-10-13T02:39:43.032Z,92.03
2022-10-13T02:42:09.778Z,91.85
2022-10-13T02:44:36.333Z,92.13
2022-10-13T02:47:03.166Z,90.81
2022-10-13T02:49:29.632Z,92.20
2022-10-13T02:51:56.141Z,91.16
2022-10-13T02:54:22.661Z,90.41
2022-10-13T02:56:49.128Z,91.14
2022-10-13T02:59:15.601Z,90.66
2022-10-13T03:01:42.145Z,91.74
2022-10-13T03:04:09.100Z,92.42
2022-10-13T03:06:35.578Z,91.58
2022-10-13T03:09:02.044Z,93.22
2022-10-13T03:11:28.826Z,92.58
2022-10-13T03:13:55.440Z,94.22
2022-10-13T03:16:21.919Z,93.55
2022-10-13T03:18:48.354Z,94.32
2022-10-13T03:21:15.684Z,94.93
2022-10-13T03:23:42.150Z,92.93
2022-10-13T03:26:08.656Z,91.19
2022-10-13T03:28:35.221Z,93.08
2022-10-13T03:31:07.823Z,92.82
2022-10-13T03:33:34.481Z,93.24
2022-10-13T03:36:01.950Z,92.51
2022-10-13T03:38:29.875Z,92.37
2022-10-13T03:40:56.893Z,92.96
2022-10-13T03:43:23.685Z,92.61
2022-10-13T03:46:00.240Z,93.35
2022-10-13T03:48:28.128Z,94.50
2022-10-13T03:50:55.656Z,94.84
2022-10-13T03:53:22.275Z,94.62
2022-10-13T03:55:52.996Z,94.78
2022-10-13T03:58:20.097Z,94.05
2022-10-13T04:00:46.989Z,94.72
2022-10-13T04:03:13.978Z,94.89
2022-10-13T04:05:40.693Z,94.25
2022-10-13T04:08:07.213Z,95.18
2022-10-13T04:10:33.785Z,95.62
2022-10-13T04:13:02.973Z,95.57
2022-10-13T04:15:29.837Z,96.47
2022-10-13T04:17:56.394Z,95.67
2022-10-13T04:20:23.037Z,96.37
2022-10-13T04:22:49.638Z,96.83
2022-10-13T04:25:16.196Z,96.53
2022-10-13T04:27:42.899Z,96.71
2022-10-13T04:30:12.460Z,95.95
2022-10-13T04:32:40.473Z,95.13
2022-10-13T04:35:07.308Z,95.03
2022-10-13T04:37:33.908Z,96.32
2022-10-13T04:40:12.679Z,95.90
2022-10-13T04:42:48.727Z,94.94
2022-10-13T04:45:23.662Z,94.98
2022-10-13T04:48:10.381Z,95.71
2022-10-13T04:50:44.123Z,96.35
2022-10-13T04:53:19.220Z,95.18
2022-10-13T04:55:46.655Z,95.27
2022-10-13T04:58:13.430Z,95.42
2022-10-13T05:00:57.484Z,95.46
2022-10-13T05:03:32.655Z,96.83
2022-10-13T05:06:03.743Z,96.40
2022-10-13T05:08:34.180Z,94.80
2022-10-13T05:11:11.371Z,95.34
2022-10-13T05:13:39.235Z,95.37
2022-10-13T05:16:15.920Z,94.62
2022-10-13T05:18:43.525Z,95.77
2022-10-13T05:21:24.844Z,97.76
2022-10-13T05:23:56.150Z,95.21
2022-10-13T05:26:29.308Z,94.55
2022-10-13T05:28:57.315Z,93.21
2022-10-13T05:31:27.931Z,93.88
2022-10-13T05:34:01.044Z,93.96
2022-10-13T05:36:56.581Z,95.35
2022-10-13T05:39:41.845Z,96.99
2022-10-13T05:42:22.926Z,97.02
2022-10-13T05:44:56.451Z,96.36
2022-10-13T05:47:37.691Z,96.45
2022-10-13T05:50:10.117Z,98.04
2022-10-13T05:52:52.917Z,96.50
2022-10-13T05:55:40.873Z,96.74
2022-10-13T05:58:19.901Z,95.41
2022-10-13T06:01:02.866Z,94.75
2022-10-13T06:03:44.446Z,95.44
2022-10-13T06:06:27.918Z,94.69
2022-10-13T06:09:15.996Z,96.65
2022-10-13T06:11:54.739Z,96.50
2022-10-13T06:15:14.637Z,96.86
2022-10-13T06:17:21.962Z,95.48
2022-10-13T06:22:43.546Z,94.16
2022-10-13T06:25:29.995Z,94.45
2022-10-13T06:28:03.312Z,96.37
2022-10-13T06:30:33.054Z,94.62
2022-10-13T06:33:06.881Z,93.74
2022-10-13T06:36:01.050Z,94.29
2022-10-13T06:56:44.233Z,98.13
2022-10-13T06:59:29.987Z,98.40
2022-10-13T07:01:59.803Z,98.21
2022-10-13T07:04:30.837Z,98.10
2022-10-13T07:07:07.243Z,96.45
2022-10-13T07:09:47.546Z,97.83
2022-10-13T07:15:29.520Z,97.02
2022-10-13T07:18:30.997Z,97.60
2022-10-13T07:27:12.676Z,96.33
2022-10-13T07:29:41.767Z,96.64
2022-10-13T07:32:11.925Z,96.55
2022-10-13T07:34:41.193Z,96.56
2022-10-13T07:37:13.128Z,96.56
2022-10-13T07:39:45.949Z,96.06
2022-10-13T07:42:17.700Z,96.25
2022-10-13T07:44:55.508Z,95.04
2022-10-13T07:47:42.437Z,94.47
2022-10-13T07:50:20.243Z,94.30
2022-10-13T07:52:57.062Z,93.58
2022-10-13T07:55:24.134Z,92.35
2022-10-13T07:57:53.221Z,91.99
2022-10-13T08:00:30.720Z,92.30
2022-10-13T08:03:40.307Z,92.47
2022-10-13T08:06:19.201Z,92.90
2022-10-13T08:08:52.968Z,91.19
2022-10-13T08:11:32.754Z,88.76
2022-10-13T08:14:02.866Z,87.88
2022-10-13T08:16:36.665Z,84.96
2022-10-13T08:19:05.744Z,84.94
2022-10-13T08:28:05.398Z,82.26
2022-10-13T08:31:09.023Z,83.11
2022-10-13T08:33:36.275Z,83.97
2022-10-13T08:36:34.858Z,83.78
2022-10-13T08:39:49.932Z,81.41
2022-10-13T08:42:24.751Z,83.72
2022-10-13T08:48:24.743Z,79.69
2022-10-13T08:59:00.151Z,83.71
2022-10-13T09:01:58.043Z,82.70
2022-10-13T10:03:58.928Z,78.79
2022-10-13T10:07:06.631Z,77.53
2022-10-13T10:09:48.905Z,77.67
2022-10-13T10:16:41.438Z,77.56
2022-10-13T10:20:00.139Z,81.14
2022-10-13T10:23:30.807Z,77.85
2022-10-13T10:26:14.032Z,76.84
2022-10-13T10:58:51.358Z,77.29
2022-10-13T11:01:27.815Z,76.46
2022-10-13T11:04:40.588Z,76.82
2022-10-13T11:07:42.151Z,78.04
2022-10-13T12:07:32.361Z,77.53
2022-10-13T12:10:05.238Z,73.50
2022-10-13T12:50:16.438Z,67.96
2022-10-13T12:52:48.506Z,68.92
2022-10-13T12:55:19.057Z,68.53
2022-10-13T12:58:18.142Z,69.49
2022-10-13T13:00:47.576Z,68.40
2022-10-13T13:03:40.148Z,69.36
2022-10-13T13:06:39.816Z,68.29
2022-10-13T13:16:41.430Z,68.35
2022-10-13T13:19:37.645Z,67.18
2022-10-13T23:55:01.293Z,96.38
